createdAt,value
2019-02-11T00:00:42.830Z,7.55
2019-02-11T00:03:12.369Z,7.53
2019-02-11T00:05:41.816Z,7.53
2019-02-11T00:08:11.440Z,7.54
2019-02-11T00:10:40.884Z,7.02
2019-02-11T00:13:11.426Z,7.60
2019-02-11T00:15:40.895Z,7.75
2019-02-11T00:18:11.430Z,7.83
2019-02-11T00:20:40.876Z,6.89
2019-02-11T00:23:11.450Z,6.76
2019-02-11T00:25:40.895Z,7.37
2019-02-11T00:28:11.432Z,7.28
2019-02-11T00:30:40.899Z,7.43
2019-02-11T00:33:11.452Z,7.64
2019-02-11T00:35:40.907Z,7.86
2019-02-11T00:38:11.463Z,7.59
2019-02-11T00:40:41.784Z,7.18
2019-02-11T00:43:18.939Z,7.23
2019-02-11T00:45:42.614Z,7.38
2019-02-11T00:48:12.085Z,7.40
2019-02-11T00:50:41.526Z,7.23
2019-02-11T00:53:11.460Z,6.77
2019-02-11T00:55:40.920Z,6.82
2019-02-11T00:58:11.434Z,6.82
2019-02-11T01:00:40.892Z,6.65
2019-02-11T01:03:11.446Z,6.77
2019-02-11T01:05:40.884Z,6.60
2019-02-11T01:08:11.485Z,6.77
2019-02-11T01:10:40.923Z,6.70
2019-02-11T01:13:11.466Z,6.86
2019-02-11T01:15:40.924Z,6.87
2019-02-11T01:18:11.468Z,6.78
2019-02-11T01:20:40.925Z,6.32
2019-02-11T01:23:11.469Z,6.80
2019-02-11T01:25:40.911Z,6.69
2019-02-11T01:28:11.496Z,6.74
2019-02-11T01:30:40.933Z,6.94
2019-02-11T01:33:11.494Z,6.36
2019-02-11T01:35:40.935Z,6.24
2019-02-11T01:38:11.491Z,6.33
2019-02-11T01:40:40.930Z,6.47
2019-02-11T01:43:11.473Z,6.22
2019-02-11T01:45:40.935Z,6.69
2019-02-11T01:48:11.486Z,6.31
2019-02-11T01:50:40.939Z,6.17
2019-02-11T01:53:11.489Z,5.97
2019-02-11T01:55:40.932Z,6.33
2019-02-11T01:58:11.509Z,6.74
2019-02-11T02:00:41.014Z,6.74
2019-02-11T02:03:11.506Z,7.08
2019-02-11T02:05:40.947Z,6.23
2019-02-11T02:08:11.551Z,6.08
2019-02-11T02:10:41.027Z,6.41
2019-02-11T02:13:11.493Z,6.48
2019-02-11T02:15:40.951Z,6.52
2019-02-11T02:18:11.492Z,6.73
2019-02-11T02:20:40.940Z,6.65
2019-02-11T02:23:11.520Z,6.71
2019-02-11T02:25:40.964Z,7.07
2019-02-11T02:28:11.506Z,6.60
2019-02-11T02:30:40.969Z,6.70
2019-02-11T02:33:11.513Z,6.82
2019-02-11T02:35:40.952Z,6.78
2019-02-11T02:38:11.541Z,6.65
2019-02-11T02:40:40.983Z,6.67
2019-02-11T02:43:11.521Z,7.02
2019-02-11T02:45:40.985Z,6.91
2019-02-11T02:48:11.528Z,6.52
2019-02-11T02:50:40.975Z,6.88
2019-02-11T02:53:11.551Z,7.32
2019-02-11T02:55:41.011Z,7.26
2019-02-11T02:58:11.556Z,7.36
2019-02-11T03:00:40.995Z,7.30
2019-02-11T03:03:11.529Z,7.64
2019-02-11T03:05:40.989Z,7.53
2019-02-11T03:08:11.661Z,7.42
2019-02-11T03:10:41.105Z,7.73
2019-02-11T03:13:11.796Z,7.55
2019-02-11T03:15:41.241Z,7.75
2019-02-11T03:18:11.745Z,7.84
2019-02-11T03:20:41.195Z,7.78
2019-02-11T03:23:11.728Z,7.65
2019-02-11T03:25:41.183Z,7.84
2019-02-11T03:28:11.752Z,7.66
2019-02-11T03:30:41.195Z,7.72
2019-02-11T03:33:11.743Z,7.80
2019-02-11T03:35:41.182Z,7.69
2019-02-11T03:38:11.766Z,7.54
2019-02-11T03:40:41.219Z,7.72
2019-02-11T03:43:11.806Z,7.23
2019-02-11T03:45:41.259Z,7.57
2019-02-11T03:48:11.752Z,7.49
2019-02-11T03:50:41.438Z,7.55
2019-02-11T03:53:11.738Z,7.71
2019-02-11T03:55:41.195Z,7.25
2019-02-11T03:58:11.746Z,7.43
2019-02-11T04:00:41.212Z,7.69
2019-02-11T04:03:11.769Z,7.72
2019-02-11T04:05:41.208Z,7.80
2019-02-11T04:08:11.780Z,7.86
2019-02-11T04:10:41.218Z,7.97
2019-02-11T04:13:11.790Z,8.31
2019-02-11T04:15:41.320Z,8.27
2019-02-11T04:18:11.782Z,8.29
2019-02-11T04:20:41.245Z,8.23
2019-02-11T04:23:11.779Z,8.16
2019-02-11T04:25:41.240Z,8.09
2019-02-11T04:28:11.814Z,8.17
2019-02-11T04:30:41.318Z,8.18
2019-02-11T04:33:11.786Z,8.18
2019-02-11T04:35:41.247Z,8.02
2019-02-11T04:38:11.776Z,7.95
2019-02-11T04:40:41.222Z,7.93
2019-02-11T04:43:11.918Z,8.01
2019-02-11T04:45:41.374Z,7.85
2019-02-11T04:48:12.049Z,7.95
2019-02-11T04:50:41.511Z,7.89
2019-02-11T04:53:11.969Z,7.97
2019-02-11T04:55:41.428Z,7.94
2019-02-11T04:58:11.981Z,8.06
2019-02-11T05:00:41.573Z,7.86
2019-02-11T05:03:11.999Z,7.75
2019-02-11T05:05:41.440Z,7.88
2019-02-11T05:08:11.967Z,7.91
2019-02-11T05:10:41.434Z,8.09
2019-02-11T05:13:12.011Z,7.98
2019-02-11T05:15:41.451Z,8.08
2019-02-11T05:18:11.984Z,7.85
2019-02-11T05:20:41.444Z,7.72
2019-02-11T05:23:12.113Z,7.69
2019-02-11T05:25:41.550Z,7.62
2019-02-11T05:28:12.244Z,7.35
2019-02-11T05:30:41.699Z,7.38
2019-02-11T05:33:12.244Z,7.46
2019-02-11T05:35:41.675Z,7.29
2019-02-11T05:38:12.157Z,7.40
2019-02-11T05:40:41.618Z,7.30
2019-02-11T05:43:12.183Z,7.45
2019-02-11T05:45:41.614Z,7.18
2019-02-11T05:48:12.202Z,7.08
2019-02-11T05:50:41.889Z,7.21
2019-02-11T05:53:12.179Z,7.25
2019-02-11T05:55:41.621Z,7.20
2019-02-11T05:58:12.187Z,7.29
2019-02-11T06:00:41.648Z,7.31
2019-02-11T06:03:12.204Z,7.02
2019-02-11T06:05:41.678Z,7.18
2019-02-11T06:08:12.265Z,7.49
2019-02-11T06:10:41.717Z,7.36
2019-02-11T06:13:12.216Z,7.43
2019-02-11T06:15:41.659Z,7.21
2019-02-11T06:18:12.219Z,6.94
2019-02-11T06:20:41.671Z,7.11
2019-02-11T06:23:12.210Z,7.53
2019-02-11T06:25:41.673Z,7.36
2019-02-11T06:28:12.216Z,7.75
2019-02-11T06:30:41.751Z,7.57
2019-02-11T06:33:12.295Z,7.30
2019-02-11T06:35:41.737Z,7.17
2019-02-11T06:38:13.219Z,7.74
2019-02-11T06:40:42.655Z,7.54
2019-02-11T06:43:12.196Z,7.44
2019-02-11T06:45:41.698Z,6.91
2019-02-11T06:48:12.207Z,6.82
2019-02-11T06:50:41.648Z,6.69
2019-02-11T06:53:12.246Z,6.67
2019-02-11T06:55:41.691Z,6.82
2019-02-11T06:58:12.231Z,7.09
2019-02-11T07:00:41.696Z,6.62
2019-02-11T07:03:12.238Z,7.05
2019-02-11T07:05:41.687Z,6.81
2019-02-11T07:08:12.254Z,6.83
2019-02-11T07:10:41.707Z,6.36
2019-02-11T07:13:12.279Z,6.83
2019-02-11T07:15:41.718Z,7.16
2019-02-11T07:18:12.275Z,6.86
2019-02-11T07:20:41.793Z,6.62
2019-02-11T07:23:12.255Z,7.30
2019-02-11T07:25:41.724Z,7.51
2019-02-11T07:28:12.258Z,7.60
2019-02-11T07:30:41.717Z,7.48
2019-02-11T07:33:12.226Z,7.56
2019-02-11T07:35:41.674Z,7.14
2019-02-11T07:38:12.372Z,7.45
2019-02-11T07:40:41.829Z,7.25
2019-02-11T07:43:19.633Z,7.23
2019-02-11T07:45:53.140Z,7.48
2019-02-11T07:48:22.607Z,7.33
2019-02-11T07:50:52.050Z,7.47
2019-02-11T07:53:21.580Z,7.74
2019-02-11T07:55:51.035Z,7.77
2019-02-11T07:58:20.489Z,7.47
2019-02-11T08:00:49.949Z,7.83
2019-02-11T08:03:19.413Z,8.01
2019-02-11T08:05:48.866Z,7.80
2019-02-11T08:08:18.308Z,7.92
2019-02-11T08:10:48.019Z,7.60
2019-02-11T08:13:17.559Z,7.93
2019-02-11T08:15:47.027Z,7.89
2019-02-11T08:18:16.495Z,8.02
2019-02-11T08:20:45.941Z,7.91
2019-02-11T08:23:15.385Z,7.65
2019-02-11T08:25:44.864Z,8.09
2019-02-11T08:28:19.388Z,8.01
2019-02-11T08:30:45.511Z,8.07
2019-02-11T08:33:14.974Z,7.91
2019-02-11T08:35:44.424Z,8.02
2019-02-11T08:38:13.866Z,7.75
2019-02-11T08:40:43.377Z,7.71
2019-02-11T08:43:12.868Z,7.79
2019-02-11T08:45:47.161Z,8.04
2019-02-11T08:48:13.539Z,7.73
2019-02-11T08:50:43.006Z,8.03
2019-02-11T08:53:12.515Z,8.42
2019-02-11T08:55:41.969Z,8.71
2019-02-11T08:58:12.490Z,7.80
2019-02-11T09:00:41.960Z,7.85
2019-02-11T09:03:12.718Z,7.95
2019-02-11T09:05:42.167Z,8.08
2019-02-11T09:08:12.759Z,8.40
2019-02-11T09:10:42.210Z,8.68
2019-02-11T09:13:12.521Z,8.47
2019-02-11T09:15:41.974Z,8.72
2019-02-11T09:18:12.516Z,8.68
2019-02-11T09:20:42.256Z,8.94
2019-02-11T09:23:12.506Z,8.81
2019-02-11T09:25:41.975Z,8.49
2019-02-11T09:28:12.500Z,8.44
2019-02-11T09:30:41.946Z,8.50
2019-02-11T09:33:12.510Z,8.05
2019-02-11T09:35:42.186Z,7.94
2019-02-11T09:38:12.607Z,8.18
2019-02-11T09:40:42.122Z,7.80
2019-02-11T09:43:12.504Z,8.27
2019-02-11T09:45:41.967Z,8.32
2019-02-11T09:48:12.505Z,8.48
2019-02-11T09:50:47.997Z,8.39
2019-02-11T09:53:17.449Z,8.76
2019-02-11T09:55:46.918Z,8.33
2019-02-11T09:58:16.383Z,8.55
2019-02-11T10:00:45.852Z,8.37
2019-02-11T10:03:15.296Z,7.74
2019-02-11T10:05:44.750Z,8.23
2019-02-11T10:08:14.220Z,8.59
2019-02-11T10:10:43.661Z,8.04
2019-02-11T10:13:13.135Z,8.18
2019-02-11T10:15:42.616Z,8.46
2019-02-11T10:18:12.536Z,7.88
2019-02-11T10:20:42.001Z,8.36
2019-02-11T10:23:12.517Z,8.57
2019-02-11T10:25:41.961Z,8.17
2019-02-11T10:28:13.367Z,8.67
2019-02-11T10:30:42.836Z,8.73
2019-02-11T10:33:12.526Z,8.06
2019-02-11T10:35:42.644Z,8.32
2019-02-11T10:38:12.547Z,8.55
2019-02-11T10:40:41.994Z,8.10
2019-02-11T10:43:12.621Z,8.52
2019-02-11T10:45:42.013Z,8.85
2019-02-11T10:48:12.868Z,9.20
2019-02-11T10:50:42.335Z,8.95
2019-02-11T10:53:12.571Z,8.98
2019-02-11T10:55:42.163Z,9.28
2019-02-11T10:58:12.808Z,9.12
2019-02-11T11:00:42.338Z,8.98
2019-02-11T11:03:12.812Z,9.11
2019-02-11T11:05:42.247Z,9.62
2019-02-11T11:08:12.768Z,9.79
2019-02-11T11:10:42.282Z,9.47
2019-02-11T11:13:12.752Z,9.48
2019-02-11T11:15:42.208Z,9.13
2019-02-11T11:18:12.807Z,9.04
2019-02-11T11:20:42.264Z,9.04
2019-02-11T11:23:12.812Z,9.06
2019-02-11T11:25:42.257Z,9.07
2019-02-11T11:28:12.797Z,9.36
2019-02-11T11:30:42.309Z,10.05
2019-02-11T11:33:12.791Z,9.84
2019-02-11T11:35:42.245Z,9.49
2019-02-11T11:38:12.766Z,9.36
2019-02-11T11:40:42.205Z,9.46
2019-02-11T11:43:12.779Z,9.13
2019-02-11T11:45:42.322Z,10.00
2019-02-11T11:48:13.020Z,10.20
2019-02-11T11:50:42.481Z,10.30
2019-02-11T11:53:13.041Z,9.87
2019-02-11T11:55:42.545Z,9.96
2019-02-11T11:58:12.955Z,9.93
2019-02-11T12:00:42.540Z,9.53
2019-02-11T12:03:13.037Z,9.74
2019-02-11T12:05:42.499Z,9.33
2019-02-11T12:08:13.265Z,9.92
2019-02-11T12:10:42.733Z,9.55
2019-02-11T12:13:22.605Z,9.77
2019-02-11T12:15:44.356Z,9.48
2019-02-11T12:18:13.828Z,9.24
2019-02-11T12:20:43.377Z,9.38
2019-02-11T12:23:12.989Z,9.46
2019-02-11T12:25:42.423Z,9.10
2019-02-11T12:28:13.050Z,9.13
2019-02-11T12:30:42.499Z,9.10
2019-02-11T12:33:13.242Z,9.13
2019-02-11T12:35:42.686Z,9.59
2019-02-11T12:38:12.977Z,9.50
2019-02-11T12:40:42.491Z,9.63
2019-02-11T12:43:12.968Z,9.50
2019-02-11T12:45:42.418Z,9.31
2019-02-11T12:48:13.214Z,8.45
2019-02-11T12:50:42.655Z,8.84
2019-02-11T12:53:12.966Z,9.06
2019-02-11T12:55:42.422Z,9.43
2019-02-11T12:58:13.195Z,9.49
2019-02-11T13:00:42.737Z,9.57
2019-02-11T13:03:13.480Z,10.19
2019-02-11T13:05:45.745Z,9.58
2019-02-11T13:08:14.195Z,9.54
2019-02-11T13:10:43.939Z,9.46
2019-02-11T13:13:13.386Z,10.00
2019-02-11T13:15:59.946Z,10.41
2019-02-11T13:18:14.127Z,10.63
2019-02-11T13:20:43.760Z,10.00
2019-02-11T13:23:13.219Z,9.80
2019-02-11T13:25:42.664Z,9.75
2019-02-11T13:28:13.040Z,9.90
2019-02-11T13:30:42.483Z,9.72
2019-02-11T13:33:13.120Z,9.70
2019-02-11T13:35:42.670Z,9.64
2019-02-11T13:38:13.034Z,9.13
2019-02-11T13:40:42.503Z,9.00
2019-02-11T13:43:13.111Z,8.03
2019-02-11T13:45:42.562Z,8.40
2019-02-11T13:48:13.113Z,7.93
2019-02-11T13:50:44.546Z,8.82
2019-02-11T13:53:14.000Z,8.71
2019-02-11T13:55:43.469Z,8.66
2019-02-11T13:58:13.067Z,7.76
2019-02-11T14:00:43.573Z,7.63
2019-02-11T14:03:13.156Z,7.32
2019-02-11T14:05:42.688Z,7.00
2019-02-11T14:08:13.221Z,7.60
2019-02-11T14:10:42.862Z,7.40
2019-02-11T14:13:13.508Z,7.85
2019-02-11T14:15:42.936Z,7.68
2019-02-11T14:18:15.247Z,7.34
2019-02-11T14:20:44.306Z,7.53
2019-02-11T14:23:13.743Z,8.27
2019-02-11T14:25:46.472Z,8.70
2019-02-11T14:28:14.590Z,9.38
2019-02-11T14:30:44.120Z,10.26
2019-02-11T14:33:13.654Z,9.56
2019-02-11T14:35:43.092Z,9.23
2019-02-11T14:38:13.121Z,9.12
2019-02-11T14:40:42.587Z,9.88
2019-02-11T14:43:13.338Z,10.37
2019-02-11T14:45:42.798Z,9.72
2019-02-11T14:48:27.104Z,9.13
2019-02-11T14:50:44.461Z,8.90
2019-02-11T14:53:14.152Z,9.35
2019-02-11T14:55:43.622Z,9.22
2019-02-11T14:58:13.490Z,9.39
2019-02-11T15:00:42.934Z,8.53
2019-02-11T15:03:13.483Z,8.97
2019-02-11T15:05:42.940Z,9.44
2019-02-11T15:08:13.566Z,10.26
2019-02-11T15:10:43.015Z,10.72
2019-02-11T15:13:13.483Z,10.03
2019-02-11T15:15:42.938Z,9.81
2019-02-11T15:18:13.470Z,10.27
2019-02-11T15:20:42.919Z,10.76
2019-02-11T15:23:13.496Z,11.15
2019-02-11T15:25:42.943Z,12.23
2019-02-11T15:28:13.490Z,10.79
2019-02-11T15:30:42.950Z,11.46
2019-02-11T15:33:13.508Z,11.54
2019-02-11T15:35:42.970Z,10.60
2019-02-11T15:38:13.499Z,9.46
2019-02-11T15:40:42.939Z,9.49
2019-02-11T15:43:13.636Z,10.00
2019-02-11T15:45:43.078Z,9.75
2019-02-11T15:48:14.208Z,9.66
2019-02-11T15:50:43.663Z,9.28
2019-02-11T15:53:13.682Z,8.95
2019-02-11T15:55:43.124Z,8.33
2019-02-11T15:58:13.675Z,8.14
2019-02-11T16:00:43.138Z,8.65
2019-02-11T16:03:13.674Z,8.52
2019-02-11T16:05:49.447Z,7.81
2019-02-11T16:08:14.319Z,7.59
2019-02-11T16:10:43.765Z,7.33
2019-02-11T16:13:13.705Z,7.82
2019-02-11T16:15:43.150Z,7.73
2019-02-11T16:18:13.686Z,7.42
2019-02-11T16:20:43.158Z,7.57
2019-02-11T16:23:13.706Z,7.60
2019-02-11T16:25:43.390Z,7.73
2019-02-11T16:28:13.703Z,7.96
2019-02-11T16:30:43.160Z,7.98
2019-02-11T16:33:13.698Z,7.71
2019-02-11T16:35:43.143Z,7.47
2019-02-11T16:38:13.725Z,7.33
2019-02-11T16:40:43.177Z,7.21
2019-02-11T16:43:13.709Z,7.32
2019-02-11T16:45:43.180Z,7.75
2019-02-11T16:48:13.736Z,7.70
2019-02-11T16:50:43.271Z,7.30
2019-02-11T16:53:13.816Z,7.38
2019-02-11T16:55:43.353Z,7.11
2019-02-11T16:58:13.761Z,7.26
2019-02-11T17:00:43.259Z,7.63
2019-02-11T17:03:13.793Z,7.24
2019-02-11T17:05:43.316Z,7.27
2019-02-11T17:08:13.828Z,6.99
2019-02-11T17:10:43.398Z,7.64
2019-02-11T17:13:13.821Z,7.48
2019-02-11T17:15:43.281Z,7.29
2019-02-11T17:18:13.756Z,7.67
2019-02-11T17:20:43.243Z,7.63
2019-02-11T17:23:13.740Z,8.01
2019-02-11T17:25:43.201Z,8.21
2019-02-11T17:28:13.876Z,8.11
2019-02-11T17:30:44.672Z,7.60
2019-02-11T17:33:14.128Z,7.50
2019-02-11T17:35:43.570Z,7.37
2019-02-11T17:38:13.936Z,7.54
2019-02-11T17:40:43.389Z,6.93
2019-02-11T17:43:13.942Z,7.34
2019-02-11T17:45:43.398Z,7.20
2019-02-11T17:48:14.097Z,7.07
2019-02-11T17:50:43.557Z,7.09
2019-02-11T17:53:21.715Z,6.96
2019-02-11T17:55:51.248Z,6.99
2019-02-11T17:58:20.774Z,6.97
2019-02-11T18:00:51.853Z,7.07
2019-02-11T18:03:21.322Z,7.15
2019-02-11T18:05:50.759Z,6.85
2019-02-11T18:08:20.223Z,7.12
2019-02-11T18:10:49.679Z,7.45
2019-02-11T18:13:19.157Z,7.17
2019-02-11T18:15:48.690Z,7.19
2019-02-11T18:18:18.161Z,6.71
2019-02-11T18:20:47.613Z,6.49
2019-02-11T18:23:17.060Z,6.88
2019-02-11T18:25:46.528Z,7.09
2019-02-11T18:28:15.974Z,7.33
2019-02-11T18:30:45.496Z,7.01
2019-02-11T18:33:14.961Z,7.19
2019-02-11T18:35:44.475Z,6.86
2019-02-11T18:38:14.159Z,6.72
2019-02-11T18:40:43.621Z,6.75
2019-02-11T18:43:14.176Z,6.60
2019-02-11T18:45:43.625Z,6.48
2019-02-11T18:48:14.313Z,6.43
2019-02-11T18:50:43.785Z,6.42
2019-02-11T18:53:14.323Z,6.41
2019-02-11T18:55:43.769Z,6.59
2019-02-11T18:58:14.339Z,6.45
2019-02-11T19:00:43.944Z,6.88
2019-02-11T19:03:14.352Z,6.67
2019-02-11T19:05:43.864Z,6.34
2019-02-11T19:08:14.377Z,6.57
2019-02-11T19:10:43.846Z,6.59
2019-02-11T19:13:14.321Z,6.95
2019-02-11T19:15:44.075Z,7.19
2019-02-11T19:18:14.612Z,7.09
2019-02-11T19:20:44.051Z,7.10
2019-02-11T19:23:14.322Z,7.20
2019-02-11T19:25:43.778Z,7.34
2019-02-11T19:28:14.338Z,7.09
2019-02-11T19:30:43.782Z,6.88
2019-02-11T19:33:14.356Z,7.28
2019-02-11T19:35:43.801Z,6.91
2019-02-11T19:38:14.335Z,7.08
2019-02-11T19:40:43.808Z,7.02
2019-02-11T19:43:14.486Z,6.97
2019-02-11T19:45:43.957Z,7.16
2019-02-11T19:48:14.338Z,6.77
2019-02-11T19:50:43.795Z,6.99
2019-02-11T19:53:14.362Z,7.16
2019-02-11T19:55:43.810Z,7.04
2019-02-11T19:58:14.369Z,6.80
2019-02-11T20:00:43.819Z,6.56
2019-02-11T20:03:14.352Z,6.76
2019-02-11T20:05:44.060Z,6.68
2019-02-11T20:08:14.425Z,6.67
2019-02-11T20:10:43.897Z,6.31
2019-02-11T20:13:14.387Z,6.15
2019-02-11T20:15:43.933Z,6.36
2019-02-11T20:18:14.358Z,5.93
2019-02-11T20:20:43.811Z,6.21
2019-02-11T20:23:14.375Z,6.03
2019-02-11T20:25:43.827Z,5.90
2019-02-11T20:28:14.436Z,6.07
2019-02-11T20:30:43.906Z,5.78
2019-02-11T20:33:14.372Z,6.20
2019-02-11T20:35:43.819Z,6.50
2019-02-11T20:38:14.391Z,6.36
2019-02-11T20:40:43.837Z,6.45
2019-02-11T20:43:14.393Z,6.92
2019-02-11T20:45:43.863Z,7.12
2019-02-11T20:48:14.399Z,7.40
2019-02-11T20:50:43.852Z,7.46
2019-02-11T20:53:14.381Z,7.43
2019-02-11T20:55:43.859Z,7.16
2019-02-11T20:58:14.389Z,7.39
2019-02-11T21:00:44.095Z,7.43
2019-02-11T21:03:14.396Z,7.09
2019-02-11T21:05:43.842Z,7.20
2019-02-11T21:08:14.404Z,7.40
2019-02-11T21:10:43.861Z,7.50
2019-02-11T21:13:14.397Z,7.56
2019-02-11T21:15:43.856Z,7.65
2019-02-11T21:18:14.403Z,7.53
2019-02-11T21:20:45.972Z,7.12
2019-02-11T21:23:15.512Z,7.12
2019-02-11T21:25:44.955Z,7.20
2019-02-11T21:28:14.419Z,7.05
2019-02-11T21:30:43.881Z,6.81
2019-02-11T21:33:14.415Z,6.72
2019-02-11T21:35:43.856Z,6.77
2019-02-11T21:38:14.439Z,6.80
2019-02-11T21:40:43.877Z,6.80
2019-02-11T21:43:14.427Z,6.97
2019-02-11T21:45:43.873Z,7.04
2019-02-11T21:48:14.402Z,6.45
2019-02-11T21:50:43.939Z,6.57
2019-02-11T21:53:14.440Z,7.14
2019-02-11T21:55:43.880Z,7.09
2019-02-11T21:58:15.510Z,6.44
2019-02-11T22:00:45.010Z,6.63
2019-02-11T22:03:15.163Z,6.53
2019-02-11T22:05:44.612Z,6.64
2019-02-11T22:08:14.444Z,6.49
2019-02-11T22:10:43.926Z,6.70
2019-02-11T22:13:14.457Z,6.46
2019-02-11T22:15:43.904Z,6.17
2019-02-11T22:18:14.462Z,6.14
2019-02-11T22:20:43.903Z,6.18
2019-02-11T22:23:14.444Z,6.20
2019-02-11T22:25:43.907Z,6.19
2019-02-11T22:28:14.456Z,6.35
2019-02-11T22:30:43.892Z,6.52
2019-02-11T22:33:14.472Z,6.47
2019-02-11T22:35:43.917Z,6.80
2019-02-11T22:38:14.453Z,6.81
2019-02-11T22:40:43.920Z,6.62
2019-02-11T22:43:14.460Z,6.71
2019-02-11T22:45:43.928Z,6.21
2019-02-11T22:48:14.454Z,6.55
2019-02-11T22:50:43.966Z,6.91
2019-02-11T22:53:14.473Z,6.41
2019-02-11T22:55:43.932Z,6.80
2019-02-11T22:58:14.482Z,6.91
2019-02-11T23:00:50.960Z,6.49
2019-02-11T23:03:20.405Z,7.14
2019-02-11T23:05:49.870Z,7.28
2019-02-11T23:08:19.702Z,6.85
2019-02-11T23:10:49.165Z,6.91
2019-02-11T23:13:18.608Z,7.10
2019-02-11T23:15:48.191Z,7.42
2019-02-11T23:18:17.657Z,7.61
2019-02-11T23:20:52.046Z,7.70
2019-02-11T23:23:18.291Z,6.74
2019-02-11T23:25:47.736Z,6.39
2019-02-11T23:28:17.271Z,6.47
2019-02-11T23:30:46.737Z,6.59
2019-02-11T23:33:16.258Z,6.12
2019-02-11T23:35:45.767Z,6.54
2019-02-11T23:38:15.213Z,6.35
2019-02-11T23:40:44.687Z,6.45
2019-02-11T23:43:14.542Z,6.73
2019-02-11T23:45:44.468Z,6.96
2019-02-11T23:48:14.529Z,7.07
2019-02-11T23:50:43.989Z,6.57
2019-02-11T23:53:14.554Z,6.63
2019-02-11T23:55:43.995Z,7.12
2019-02-11T23:58:14.503Z,7.35
